Kezdőlap
METAR-TAF:

METAR-TAF

Repülőterek :

Fort Morgan, Colorado, Amerikai Egyesült Államok

földrajzi szélesség: 40-20-02N, földrajzi hosszúság: 103-48-15W, magasság: 1393 m

Jelenlegi meteorológiai megfigyelések

A jelentés 29 perccel ezelõtt készült, 04:15 UTC
Nyugati szél 7 kt, dél-délnyugati és nyugat-északnyugati között változik
Hőmérséklet 23°C
Páratartalom 53%
Légköri nyomás 1015 hPa
Látótávolság: 16.1 km
Kevés felhő 12000 lábon

METAR: KFMM 130415Z AUTO 26007KT 210V290 10SM FEW120 23/13 A2998 RMK AO2

Idő: 22:44 (04:44 UTC)


TAF: hiányzik

Meteorológiai megfigyelések és előrejelzések több, mint 4000 repülőtéren (METAR és TAF jelentéseket).

A térképen piros és sárga pontok jelzik az elérhető meteorológiai állomásokat.

Mozgassa az egeret a pont fölött, hogy megjelenjen az állomás neve.

Azután kattintson az időjárási megfigyelések és előrejelzések megtekintéséhez.

A térkép megváltoztatása: kattintson a fekete keresztel jelölt zöld gombra ráközelítéshez, a vonallal jelölt zöld gombra távolításhoz, vagy a zöld nyilakra a szomszédos térképek eléréséhez.


METAR-TAF: